< < Back
Terminal Aerodrome Forecast


Current Version              Previous Versions:   1  2  3  4  5  6  7  8  9  

Terminal Aerodrome Forecast

310
FTUS42 KILM 272327
TAFFLO
TAF
KFLO 272327Z 2800/2824 18008KT P6SM VCSH SCT025 BKN050 OVC100
     FM280400 18004KT P6SM SCT050 BKN250
     FM280700 13002KT 3SM BR SKC
     FM281200 19008KT P6SM FEW025 SCT250
     FM281800 15007KT P6SM VCSH SCT030 SCT050 BKN100=



Latest METAR

800
SAUS70 KWBC 280800 RRK
MTRFLO
METAR KFLO 280753Z AUTO 00000KT 10SM FEW100 21/20 A3019 RMK AO2 SLP218
T02110200


USA.gov is the U.S. government's official web portal to all federal, state and local government web resources and services.